sensor_id;sensor_type;location;lat;lon;timestamp;P1;durP1;ratioP1;P2;durP2;ratioP2
62256;SDS011;48240;52.962;5.790;2023-05-07T03:53:22;6.72;;;4.82;;
62256;SDS011;48240;52.962;5.790;2023-05-07T03:55:48;7.45;;;5.35;;
62256;SDS011;48240;52.962;5.790;2023-05-07T03:58:14;7.68;;;5.60;;
62256;SDS011;48240;52.962;5.790;2023-05-07T04:00:41;8.40;;;5.10;;
62256;SDS011;48240;52.962;5.790;2023-05-07T04:03:07;5.93;;;4.93;;
62256;SDS011;48240;52.962;5.790;2023-05-07T04:05:33;6.95;;;5.05;;
62256;SDS011;48240;52.962;5.790;2023-05-07T04:07:59;7.75;;;5.40;;
62256;SDS011;48240;52.962;5.790;2023-05-07T04:10:26;8.90;;;4.88;;
62256;SDS011;48240;52.962;5.790;2023-05-07T04:12:53;8.30;;;4.82;;
62256;SDS011;48240;52.962;5.790;2023-05-07T04:15:19;6.25;;;5.05;;
62256;SDS011;48240;52.962;5.790;2023-05-07T04:17:45;6.65;;;5.15;;
62256;SDS011;48240;52.962;5.790;2023-05-07T04:20:14;8.48;;;4.80;;
62256;SDS011;48240;52.962;5.790;2023-05-07T04:22:40;6.60;;;5.03;;
62256;SDS011;48240;52.962;5.790;2023-05-07T04:25:06;7.65;;;5.63;;
62256;SDS011;48240;52.962;5.790;2023-05-07T04:27:34;7.22;;;5.35;;
62256;SDS011;48240;52.962;5.790;2023-05-07T04:30:00;6.32;;;5.15;;
62256;SDS011;48240;52.962;5.790;2023-05-07T04:32:28;6.47;;;5.53;;
62256;SDS011;48240;52.962;5.790;2023-05-07T04:34:54;6.88;;;5.18;;
62256;SDS011;48240;52.962;5.790;2023-05-07T04:37:20;8.23;;;5.90;;
62256;SDS011;48240;52.962;5.790;2023-05-07T04:39:47;5.93;;;4.50;;
62256;SDS011;48240;52.962;5.790;2023-05-07T04:42:16;8.30;;;5.93;;
62256;SDS011;48240;52.962;5.790;2023-05-07T04:44:43;5.93;;;4.65;;
62256;SDS011;48240;52.962;5.790;2023-05-07T04:47:09;8.55;;;5.32;;
62256;SDS011;48240;52.962;5.790;2023-05-07T04:49:36;7.35;;;5.38;;
62256;SDS011;48240;52.962;5.790;2023-05-07T04:52:02;8.40;;;6.25;;
62256;SDS011;48240;52.962;5.790;2023-05-07T04:54:28;7.88;;;5.72;;
62256;SDS011;48240;52.962;5.790;2023-05-07T04:56:55;7.97;;;5.43;;
62256;SDS011;48240;52.962;5.790;2023-05-07T04:59:21;6.60;;;5.40;;
62256;SDS011;48240;52.962;5.790;2023-05-07T05:01:47;7.55;;;5.97;;
62256;SDS011;48240;52.962;5.790;2023-05-07T05:04:13;9.00;;;6.35;;
62256;SDS011;48240;52.962;5.790;2023-05-07T05:06:39;7.22;;;5.82;;
62256;SDS011;48240;52.962;5.790;2023-05-07T05:09:05;7.75;;;6.28;;
62256;SDS011;48240;52.962;5.790;2023-05-07T05:11:31;9.07;;;7.05;;
62256;SDS011;48240;52.962;5.790;2023-05-07T05:13:58;9.00;;;6.68;;
62256;SDS011;48240;52.962;5.790;2023-05-07T05:16:25;7.43;;;6.30;;
62256;SDS011;48240;52.962;5.790;2023-05-07T05:18:51;8.82;;;6.03;;
62256;SDS011;48240;52.962;5.790;2023-05-07T05:21:19;8.32;;;6.20;;
62256;SDS011;48240;52.962;5.790;2023-05-07T05:23:45;9.35;;;6.38;;
62256;SDS011;48240;52.962;5.790;2023-05-07T05:26:12;8.85;;;6.22;;
62256;SDS011;48240;52.962;5.790;2023-05-07T05:28:38;7.43;;;6.03;;
62256;SDS011;48240;52.962;5.790;2023-05-07T05:31:04;8.90;;;6.35;;
62256;SDS011;48240;52.962;5.790;2023-05-07T05:33:31;8.38;;;6.40;;
62256;SDS011;48240;52.962;5.790;2023-05-07T05:35:57;9.63;;;6.43;;
62256;SDS011;48240;52.962;5.790;2023-05-07T05:38:23;7.88;;;6.20;;
62256;SDS011;48240;52.962;5.790;2023-05-07T05:40:49;9.23;;;6.63;;
62256;SDS011;48240;52.962;5.790;2023-05-07T05:43:15;8.05;;;6.80;;
62256;SDS011;48240;52.962;5.790;2023-05-07T05:45:41;9.45;;;6.95;;
62256;SDS011;48240;52.962;5.790;2023-05-07T05:48:07;10.10;;;7.22;;
62256;SDS011;48240;52.962;5.790;2023-05-07T05:50:34;12.13;;;7.18;;
62256;SDS011;48240;52.962;5.790;2023-05-07T05:53:03;9.73;;;7.20;;
62256;SDS011;48240;52.962;5.790;2023-05-07T05:55:29;8.07;;;6.50;;
62256;SDS011;48240;52.962;5.790;2023-05-07T05:57:57;9.48;;;6.80;;
62256;SDS011;48240;52.962;5.790;2023-05-07T06:00:23;6.97;;;5.68;;
62256;SDS011;48240;52.962;5.790;2023-05-07T06:02:49;7.80;;;6.50;;
62256;SDS011;48240;52.962;5.790;2023-05-07T06:05:15;7.35;;;6.43;;
62256;SDS011;48240;52.962;5.790;2023-05-07T06:07:41;9.35;;;6.07;;
62256;SDS011;48240;52.962;5.790;2023-05-07T06:10:08;11.63;;;7.68;;
62256;SDS011;48240;52.962;5.790;2023-05-07T06:12:34;9.35;;;7.13;;
62256;SDS011;48240;52.962;5.790;2023-05-07T06:15:00;12.43;;;7.20;;
62256;SDS011;48240;52.962;5.790;2023-05-07T06:17:26;14.27;;;7.68;;
62256;SDS011;48240;52.962;5.790;2023-05-07T06:19:52;10.25;;;7.70;;
62256;SDS011;48240;52.962;5.790;2023-05-07T06:22:18;12.95;;;9.00;;
62256;SDS011;48240;52.962;5.790;2023-05-07T06:24:44;12.40;;;8.68;;
62256;SDS011;48240;52.962;5.790;2023-05-07T06:27:11;9.52;;;6.72;;
62256;SDS011;48240;52.962;5.790;2023-05-07T06:29:37;11.00;;;8.27;;
62256;SDS011;48240;52.962;5.790;2023-05-07T06:32:07;15.32;;;9.05;;
62256;SDS011;48240;52.962;5.790;2023-05-07T06:34:33;18.77;;;12.40;;
62256;SDS011;48240;52.962;5.790;2023-05-07T06:36:59;19.35;;;13.85;;
62256;SDS011;48240;52.962;5.790;2023-05-07T06:39:25;23.67;;;16.67;;
62256;SDS011;48240;52.962;5.790;2023-05-07T06:41:51;26.27;;;17.55;;
62256;SDS011;48240;52.962;5.790;2023-05-07T06:44:17;28.35;;;18.33;;
62256;SDS011;48240;52.962;5.790;2023-05-07T06:46:43;26.88;;;19.02;;
62256;SDS011;48240;52.962;5.790;2023-05-07T06:49:10;26.20;;;17.65;;
62256;SDS011;48240;52.962;5.790;2023-05-07T06:51:36;24.27;;;16.90;;
62256;SDS011;48240;52.962;5.790;2023-05-07T06:54:02;28.15;;;19.35;;
62256;SDS011;48240;52.962;5.790;2023-05-07T06:56:29;25.23;;;18.70;;
62256;SDS011;48240;52.962;5.790;2023-05-07T06:58:55;24.80;;;18.40;;
62256;SDS011;48240;52.962;5.790;2023-05-07T07:01:21;25.52;;;19.00;;
62256;SDS011;48240;52.962;5.790;2023-05-07T07:03:48;24.13;;;18.48;;
62256;SDS011;48240;52.962;5.790;2023-05-07T07:06:14;27.17;;;18.73;;
62256;SDS011;48240;52.962;5.790;2023-05-07T07:08:40;23.27;;;17.33;;
62256;SDS011;48240;52.962;5.790;2023-05-07T07:11:07;27.20;;;18.23;;
62256;SDS011;48240;52.962;5.790;2023-05-07T07:13:34;27.63;;;16.13;;
62256;SDS011;48240;52.962;5.790;2023-05-07T07:16:00;23.50;;;15.07;;
62256;SDS011;48240;52.962;5.790;2023-05-07T07:18:26;19.52;;;13.10;;
62256;SDS011;48240;52.962;5.790;2023-05-07T07:20:52;20.27;;;14.02;;
62256;SDS011;48240;52.962;5.790;2023-05-07T07:23:18;19.15;;;13.70;;
62256;SDS011;48240;52.962;5.790;2023-05-07T07:25:45;18.75;;;13.68;;
62256;SDS011;48240;52.962;5.790;2023-05-07T07:28:11;23.17;;;12.52;;
62256;SDS011;48240;52.962;5.790;2023-05-07T07:30:37;18.90;;;11.52;;
62256;SDS011;48240;52.962;5.790;2023-05-07T07:33:03;16.55;;;12.35;;
62256;SDS011;48240;52.962;5.790;2023-05-07T07:35:30;15.90;;;11.32;;
62256;SDS011;48240;52.962;5.790;2023-05-07T07:37:56;14.43;;;10.98;;
62256;SDS011;48240;52.962;5.790;2023-05-07T07:40:22;16.63;;;12.02;;
62256;SDS011;48240;52.962;5.790;2023-05-07T07:42:50;16.30;;;11.52;;
62256;SDS011;48240;52.962;5.790;2023-05-07T07:45:16;13.88;;;10.82;;
62256;SDS011;48240;52.962;5.790;2023-05-07T07:47:42;14.05;;;10.70;;
62256;SDS011;48240;52.962;5.790;2023-05-07T07:50:08;16.55;;;11.18;;
62256;SDS011;48240;52.962;5.790;2023-05-07T07:52:35;14.40;;;10.70;;
62256;SDS011;48240;52.962;5.790;2023-05-07T07:55:01;14.63;;;10.80;;
62256;SDS011;48240;52.962;5.790;2023-05-07T07:57:28;16.17;;;11.05;;
62256;SDS011;48240;52.962;5.790;2023-05-07T07:59:54;12.38;;;9.55;;
62256;SDS011;48240;52.962;5.790;2023-05-07T08:02:20;13.18;;;10.18;;
62256;SDS011;48240;52.962;5.790;2023-05-07T08:04:46;15.13;;;9.43;;
62256;SDS011;48240;52.962;5.790;2023-05-07T08:07:12;16.80;;;9.80;;
62256;SDS011;48240;52.962;5.790;2023-05-07T08:09:39;12.75;;;9.90;;
62256;SDS011;48240;52.962;5.790;2023-05-07T08:12:06;12.75;;;9.52;;
62256;SDS011;48240;52.962;5.790;2023-05-07T08:14:33;12.18;;;9.75;;
62256;SDS011;48240;52.962;5.790;2023-05-07T08:16:59;10.38;;;8.13;;
62256;SDS011;48240;52.962;5.790;2023-05-07T08:19:25;11.60;;;9.68;;
62256;SDS011;48240;52.962;5.790;2023-05-07T08:21:51;12.02;;;9.13;;
62256;SDS011;48240;52.962;5.790;2023-05-07T08:24:17;11.85;;;9.32;;
62256;SDS011;48240;52.962;5.790;2023-05-07T08:26:44;11.52;;;9.15;;
62256;SDS011;48240;52.962;5.790;2023-05-07T08:29:10;10.50;;;8.95;;
62256;SDS011;48240;52.962;5.790;2023-05-07T08:31:36;10.98;;;8.93;;
62256;SDS011;48240;52.962;5.790;2023-05-07T08:34:04;12.05;;;9.38;;
62256;SDS011;48240;52.962;5.790;2023-05-07T08:36:31;12.50;;;9.80;;
62256;SDS011;48240;52.962;5.790;2023-05-07T08:38:57;14.27;;;9.27;;
62256;SDS011;48240;52.962;5.790;2023-05-07T08:41:23;12.82;;;9.27;;
62256;SDS011;48240;52.962;5.790;2023-05-07T08:43:50;12.77;;;8.75;;
62256;SDS011;48240;52.962;5.790;2023-05-07T08:46:17;12.15;;;8.95;;
62256;SDS011;48240;52.962;5.790;2023-05-07T08:48:43;10.75;;;8.57;;
62256;SDS011;48240;52.962;5.790;2023-05-07T08:51:13;10.43;;;8.52;;
62256;SDS011;48240;52.962;5.790;2023-05-07T08:53:40;11.50;;;8.95;;
62256;SDS011;48240;52.962;5.790;2023-05-07T08:56:07;10.48;;;8.70;;
62256;SDS011;48240;52.962;5.790;2023-05-07T08:58:33;11.90;;;9.18;;
62256;SDS011;48240;52.962;5.790;2023-05-07T09:01:01;11.82;;;9.18;;
62256;SDS011;48240;52.962;5.790;2023-05-07T09:03:30;9.95;;;8.15;;
62256;SDS011;48240;52.962;5.790;2023-05-07T09:05:56;11.63;;;9.07;;
62256;SDS011;48240;52.962;5.790;2023-05-07T09:08:24;11.13;;;7.72;;
62256;SDS011;48240;52.962;5.790;2023-05-07T09:10:51;9.88;;;8.25;;
62256;SDS011;48240;52.962;5.790;2023-05-07T09:13:17;9.88;;;7.90;;
62256;SDS011;48240;52.962;5.790;2023-05-07T09:15:44;10.98;;;8.75;;
62256;SDS011;48240;52.962;5.790;2023-05-07T09:18:10;10.90;;;8.60;;
62256;SDS011;48240;52.962;5.790;2023-05-07T09:20:37;9.75;;;8.13;;
62256;SDS011;48240;52.962;5.790;2023-05-07T09:23:03;12.70;;;9.27;;
62256;SDS011;48240;52.962;5.790;2023-05-07T09:25:30;9.48;;;7.95;;
62256;SDS011;48240;52.962;5.790;2023-05-07T09:27:56;11.25;;;8.63;;
62256;SDS011;48240;52.962;5.790;2023-05-07T09:30:26;12.25;;;9.13;;
62256;SDS011;48240;52.962;5.790;2023-05-07T09:32:53;11.00;;;8.93;;
62256;SDS011;48240;52.962;5.790;2023-05-07T09:35:19;14.57;;;9.70;;
62256;SDS011;48240;52.962;5.790;2023-05-07T09:37:52;10.35;;;8.57;;
62256;SDS011;48240;52.962;5.790;2023-05-07T09:40:23;12.00;;;9.43;;
62256;SDS011;48240;52.962;5.790;2023-05-07T09:42:50;12.15;;;9.82;;
62256;SDS011;48240;52.962;5.790;2023-05-07T09:45:21;11.98;;;9.70;;
62256;SDS011;48240;52.962;5.790;2023-05-07T09:50:13;11.20;;;9.00;;
62256;SDS011;48240;52.962;5.790;2023-05-07T09:52:41;11.57;;;9.27;;
62256;SDS011;48240;52.962;5.790;2023-05-07T09:55:08;12.27;;;9.43;;
62256;SDS011;48240;52.962;5.790;2023-05-07T09:57:34;10.07;;;8.63;;
62256;SDS011;48240;52.962;5.790;2023-05-07T10:00:02;11.82;;;9.10;;
62256;SDS011;48240;52.962;5.790;2023-05-07T10:02:34;11.90;;;9.02;;
62256;SDS011;48240;52.962;5.790;2023-05-07T10:05:01;14.40;;;9.75;;
62256;SDS011;48240;52.962;5.790;2023-05-07T10:07:28;14.18;;;10.18;;
62256;SDS011;48240;52.962;5.790;2023-05-07T10:09:55;13.32;;;8.90;;
62256;SDS011;48240;52.962;5.790;2023-05-07T10:12:21;12.68;;;9.20;;
62256;SDS011;48240;52.962;5.790;2023-05-07T10:14:47;13.82;;;10.60;;
62256;SDS011;48240;52.962;5.790;2023-05-07T10:17:15;12.55;;;9.93;;
62256;SDS011;48240;52.962;5.790;2023-05-07T10:19:44;13.70;;;9.43;;
62256;SDS011;48240;52.962;5.790;2023-05-07T10:22:10;14.07;;;10.20;;
62256;SDS011;48240;52.962;5.790;2023-05-07T10:24:37;14.70;;;11.18;;
62256;SDS011;48240;52.962;5.790;2023-05-07T10:27:04;14.73;;;11.15;;
62256;SDS011;48240;52.962;5.790;2023-05-07T10:32:30;17.80;;;11.18;;
62256;SDS011;48240;52.962;5.790;2023-05-07T10:34:57;16.10;;;11.50;;
62256;SDS011;48240;52.962;5.790;2023-05-07T10:37:24;20.23;;;11.60;;
62256;SDS011;48240;52.962;5.790;2023-05-07T10:39:51;17.88;;;12.88;;
62256;SDS011;48240;52.962;5.790;2023-05-07T10:42:17;18.92;;;12.32;;
62256;SDS011;48240;52.962;5.790;2023-05-07T10:44:43;13.52;;;10.38;;
62256;SDS011;48240;52.962;5.790;2023-05-07T10:47:10;13.82;;;10.77;;
62256;SDS011;48240;52.962;5.790;2023-05-07T10:54:41;13.90;;;9.30;;
62256;SDS011;48240;52.962;5.790;2023-05-07T11:00:40;12.02;;;9.35;;
62256;SDS011;48240;52.962;5.790;2023-05-07T11:05:29;11.93;;;9.43;;
62256;SDS011;48240;52.962;5.790;2023-05-07T11:07:59;13.13;;;9.03;;
62256;SDS011;48240;52.962;5.790;2023-05-07T11:13:10;12.23;;;9.50;;
62256;SDS011;48240;52.962;5.790;2023-05-07T11:15:40;12.98;;;8.25;;
62256;SDS011;48240;52.962;5.790;2023-05-07T11:18:09;12.60;;;8.90;;
62256;SDS011;48240;52.962;5.790;2023-05-07T11:20:52;12.75;;;9.13;;
62256;SDS011;48240;52.962;5.790;2023-05-07T11:26:04;10.50;;;8.23;;
62256;SDS011;48240;52.962;5.790;2023-05-07T11:28:31;10.60;;;8.13;;
62256;SDS011;48240;52.962;5.790;2023-05-07T11:30:57;10.95;;;8.40;;
62256;SDS011;48240;52.962;5.790;2023-05-07T11:33:23;15.13;;;9.40;;
62256;SDS011;48240;52.962;5.790;2023-05-07T11:35:50;10.63;;;8.57;;
62256;SDS011;48240;52.962;5.790;2023-05-07T11:38:19;10.75;;;8.50;;
62256;SDS011;48240;52.962;5.790;2023-05-07T11:43:20;11.55;;;8.18;;
62256;SDS011;48240;52.962;5.790;2023-05-07T11:45:46;12.48;;;8.55;;
62256;SDS011;48240;52.962;5.790;2023-05-07T11:48:13;12.45;;;8.18;;
62256;SDS011;48240;52.962;5.790;2023-05-07T11:53:24;11.00;;;8.57;;
62256;SDS011;48240;52.962;5.790;2023-05-07T11:55:56;10.15;;;8.07;;
62256;SDS011;48240;52.962;5.790;2023-05-07T11:58:23;12.57;;;8.68;;
62256;SDS011;48240;52.962;5.790;2023-05-07T12:00:53;10.27;;;8.32;;
62256;SDS011;48240;52.962;5.790;2023-05-07T12:03:20;10.45;;;8.00;;
62256;SDS011;48240;52.962;5.790;2023-05-07T12:05:47;9.32;;;8.15;;
62256;SDS011;48240;52.962;5.790;2023-05-07T12:08:16;12.98;;;9.25;;
62256;SDS011;48240;52.962;5.790;2023-05-07T12:10:42;12.45;;;9.13;;
62256;SDS011;48240;52.962;5.790;2023-05-07T12:15:42;11.07;;;7.88;;
62256;SDS011;48240;52.962;5.790;2023-05-07T12:18:08;11.57;;;7.85;;
62256;SDS011;48240;52.962;5.790;2023-05-07T12:20:35;11.23;;;8.63;;
62256;SDS011;48240;52.962;5.790;2023-05-07T12:23:02;9.10;;;7.57;;
62256;SDS011;48240;52.962;5.790;2023-05-07T12:25:31;9.73;;;7.90;;
62256;SDS011;48240;52.962;5.790;2023-05-07T12:27:59;9.40;;;8.25;;
62256;SDS011;48240;52.962;5.790;2023-05-07T12:30:26;10.93;;;7.88;;
62256;SDS011;48240;52.962;5.790;2023-05-07T12:32:52;10.95;;;8.27;;
62256;SDS011;48240;52.962;5.790;2023-05-07T12:35:26;8.80;;;7.05;;
62256;SDS011;48240;52.962;5.790;2023-05-07T12:37:55;9.52;;;7.35;;
62256;SDS011;48240;52.962;5.790;2023-05-07T12:40:22;10.20;;;8.10;;
62256;SDS011;48240;52.962;5.790;2023-05-07T12:42:48;9.05;;;7.72;;
62256;SDS011;48240;52.962;5.790;2023-05-07T12:45:20;9.63;;;7.97;;
62256;SDS011;48240;52.962;5.790;2023-05-07T12:47:46;11.60;;;8.05;;
62256;SDS011;48240;52.962;5.790;2023-05-07T12:50:13;10.52;;;7.60;;
62256;SDS011;48240;52.962;5.790;2023-05-07T12:52:40;9.63;;;7.80;;
62256;SDS011;48240;52.962;5.790;2023-05-07T12:55:07;9.48;;;7.63;;
62256;SDS011;48240;52.962;5.790;2023-05-07T12:57:39;7.88;;;7.07;;
62256;SDS011;48240;52.962;5.790;2023-05-07T13:00:06;9.95;;;7.47;;
62256;SDS011;48240;52.962;5.790;2023-05-07T13:02:33;11.38;;;7.57;;
62256;SDS011;48240;52.962;5.790;2023-05-07T13:04:59;7.88;;;6.35;;
62256;SDS011;48240;52.962;5.790;2023-05-07T13:07:26;9.90;;;8.05;;
62256;SDS011;48240;52.962;5.790;2023-05-07T13:09:52;9.68;;;7.63;;
62256;SDS011;48240;52.962;5.790;2023-05-07T13:12:18;10.32;;;8.07;;
62256;SDS011;48240;52.962;5.790;2023-05-07T13:14:44;9.57;;;8.02;;
62256;SDS011;48240;52.962;5.790;2023-05-07T13:17:10;8.57;;;7.38;;
62256;SDS011;48240;52.962;5.790;2023-05-07T13:19:36;10.20;;;7.43;;
62256;SDS011;48240;52.962;5.790;2023-05-07T13:22:05;8.25;;;7.18;;
62256;SDS011;48240;52.962;5.790;2023-05-07T13:24:31;8.25;;;6.90;;
62256;SDS011;48240;52.962;5.790;2023-05-07T13:26:57;7.85;;;7.00;;
62256;SDS011;48240;52.962;5.790;2023-05-07T13:29:23;9.20;;;7.10;;
62256;SDS011;48240;52.962;5.790;2023-05-07T13:31:54;10.35;;;7.30;;
62256;SDS011;48240;52.962;5.790;2023-05-07T13:34:20;7.63;;;6.80;;
62256;SDS011;48240;52.962;5.790;2023-05-07T13:36:46;9.63;;;7.40;;
62256;SDS011;48240;52.962;5.790;2023-05-07T13:39:12;11.60;;;7.55;;
62256;SDS011;48240;52.962;5.790;2023-05-07T13:41:38;9.63;;;7.78;;
62256;SDS011;48240;52.962;5.790;2023-05-07T13:44:04;9.07;;;7.38;;
62256;SDS011;48240;52.962;5.790;2023-05-07T13:46:30;8.27;;;7.40;;
62256;SDS011;48240;52.962;5.790;2023-05-07T13:48:56;7.40;;;6.70;;
62256;SDS011;48240;52.962;5.790;2023-05-07T13:51:23;9.25;;;6.55;;
62256;SDS011;48240;52.962;5.790;2023-05-07T13:53:49;9.27;;;7.10;;
62256;SDS011;48240;52.962;5.790;2023-05-07T13:56:15;8.95;;;7.18;;
62256;SDS011;48240;52.962;5.790;2023-05-07T13:58:41;7.45;;;6.70;;
62256;SDS011;48240;52.962;5.790;2023-05-07T14:01:07;8.70;;;7.20;;
62256;SDS011;48240;52.962;5.790;2023-05-07T14:03:33;9.35;;;7.57;;
62256;SDS011;48240;52.962;5.790;2023-05-07T14:06:02;8.07;;;7.15;;
62256;SDS011;48240;52.962;5.790;2023-05-07T14:08:28;7.90;;;6.65;;
62256;SDS011;48240;52.962;5.790;2023-05-07T14:10:55;8.98;;;7.22;;
62256;SDS011;48240;52.962;5.790;2023-05-07T14:13:21;8.05;;;6.63;;
62256;SDS011;48240;52.962;5.790;2023-05-07T14:15:47;9.38;;;6.70;;
62256;SDS011;48240;52.962;5.790;2023-05-07T14:18:14;8.05;;;6.50;;
62256;SDS011;48240;52.962;5.790;2023-05-07T14:20:40;8.20;;;6.90;;
62256;SDS011;48240;52.962;5.790;2023-05-07T14:23:08;8.50;;;7.28;;
62256;SDS011;48240;52.962;5.790;2023-05-07T14:25:34;8.95;;;6.80;;
62256;SDS011;48240;52.962;5.790;2023-05-07T14:28:00;7.85;;;6.60;;
62256;SDS011;48240;52.962;5.790;2023-05-07T14:30:26;9.50;;;7.13;;
62256;SDS011;48240;52.962;5.790;2023-05-07T14:32:53;7.47;;;6.20;;
62256;SDS011;48240;52.962;5.790;2023-05-07T14:35:19;9.25;;;6.95;;
62256;SDS011;48240;52.962;5.790;2023-05-07T14:37:45;7.28;;;6.10;;
62256;SDS011;48240;52.962;5.790;2023-05-07T14:40:11;7.47;;;6.18;;
62256;SDS011;48240;52.962;5.790;2023-05-07T14:42:37;8.02;;;6.65;;
62256;SDS011;48240;52.962;5.790;2023-05-07T14:45:03;7.63;;;6.90;;
62256;SDS011;48240;52.962;5.790;2023-05-07T14:47:30;7.07;;;6.00;;
62256;SDS011;48240;52.962;5.790;2023-05-07T14:49:56;8.60;;;6.05;;
62256;SDS011;48240;52.962;5.790;2023-05-07T14:52:23;7.53;;;6.30;;
62256;SDS011;48240;52.962;5.790;2023-05-07T14:54:49;6.15;;;5.55;;
62256;SDS011;48240;52.962;5.790;2023-05-07T14:57:15;7.93;;;6.50;;
62256;SDS011;48240;52.962;5.790;2023-05-07T14:59:43;8.77;;;6.38;;
62256;SDS011;48240;52.962;5.790;2023-05-07T15:02:10;6.95;;;5.78;;
62256;SDS011;48240;52.962;5.790;2023-05-07T15:04:37;7.10;;;6.15;;
62256;SDS011;48240;52.962;5.790;2023-05-07T15:07:05;10.30;;;6.78;;
62256;SDS011;48240;52.962;5.790;2023-05-07T15:09:31;8.88;;;6.50;;
62256;SDS011;48240;52.962;5.790;2023-05-07T15:11:57;9.02;;;6.28;;
62256;SDS011;48240;52.962;5.790;2023-05-07T15:14:23;8.55;;;6.40;;
62256;SDS011;48240;52.962;5.790;2023-05-07T15:16:49;8.52;;;6.93;;
62256;SDS011;48240;52.962;5.790;2023-05-07T15:19:15;9.32;;;6.55;;
62256;SDS011;48240;52.962;5.790;2023-05-07T15:21:41;10.20;;;6.57;;
62256;SDS011;48240;52.962;5.790;2023-05-07T15:24:08;11.55;;;7.15;;
62256;SDS011;48240;52.962;5.790;2023-05-07T15:26:34;16.13;;;7.35;;
62256;SDS011;48240;52.962;5.790;2023-05-07T15:29:00;17.15;;;7.75;;
62256;SDS011;48240;52.962;5.790;2023-05-07T15:31:28;12.10;;;7.28;;
62256;SDS011;48240;52.962;5.790;2023-05-07T15:33:54;10.85;;;7.25;;
62256;SDS011;48240;52.962;5.790;2023-05-07T15:36:21;11.40;;;7.20;;
62256;SDS011;48240;52.962;5.790;2023-05-07T15:38:47;13.98;;;8.32;;
62256;SDS011;48240;52.962;5.790;2023-05-07T15:41:13;12.55;;;7.85;;
62256;SDS011;48240;52.962;5.790;2023-05-07T15:43:43;14.75;;;8.10;;
62256;SDS011;48240;52.962;5.790;2023-05-07T15:46:10;11.57;;;7.90;;
62256;SDS011;48240;52.962;5.790;2023-05-07T15:48:36;13.45;;;7.10;;
62256;SDS011;48240;52.962;5.790;2023-05-07T15:51:02;14.40;;;8.02;;
62256;SDS011;48240;52.962;5.790;2023-05-07T15:53:29;11.15;;;7.25;;
62256;SDS011;48240;52.962;5.790;2023-05-07T15:55:55;13.63;;;8.00;;
62256;SDS011;48240;52.962;5.790;2023-05-07T15:58:21;11.40;;;7.75;;
62256;SDS011;48240;52.962;5.790;2023-05-07T16:00:48;12.70;;;7.47;;
62256;SDS011;48240;52.962;5.790;2023-05-07T16:03:14;10.13;;;7.43;;
62256;SDS011;48240;52.962;5.790;2023-05-07T16:05:40;25.95;;;7.90;;
62256;SDS011;48240;52.962;5.790;2023-05-07T16:08:06;38.40;;;14.77;;
62256;SDS011;48240;52.962;5.790;2023-05-07T16:10:32;38.22;;;14.45;;
62256;SDS011;48240;52.962;5.790;2023-05-07T16:12:58;29.92;;;12.45;;
62256;SDS011;48240;52.962;5.790;2023-05-07T16:15:25;22.95;;;11.35;;
62256;SDS011;48240;52.962;5.790;2023-05-07T16:17:51;29.48;;;11.60;;
62256;SDS011;48240;52.962;5.790;2023-05-07T16:20:22;30.60;;;11.55;;
62256;SDS011;48240;52.962;5.790;2023-05-07T16:22:48;24.77;;;11.57;;
62256;SDS011;48240;52.962;5.790;2023-05-07T16:25:14;30.67;;;11.13;;
62256;SDS011;48240;52.962;5.790;2023-05-07T16:27:40;23.33;;;10.75;;
62256;SDS011;48240;52.962;5.790;2023-05-07T16:30:06;28.70;;;11.10;;
62256;SDS011;48240;52.962;5.790;2023-05-07T16:32:33;26.08;;;10.90;;
62256;SDS011;48240;52.962;5.790;2023-05-07T16:34:59;22.92;;;10.30;;
62256;SDS011;48240;52.962;5.790;2023-05-07T16:37:25;27.73;;;10.45;;
62256;SDS011;48240;52.962;5.790;2023-05-07T16:39:51;24.27;;;10.57;;
62256;SDS011;48240;52.962;5.790;2023-05-07T16:42:18;24.15;;;10.05;;
62256;SDS011;48240;52.962;5.790;2023-05-07T16:44:44;20.83;;;9.75;;
62256;SDS011;48240;52.962;5.790;2023-05-07T16:47:10;18.25;;;9.68;;
62256;SDS011;48240;52.962;5.790;2023-05-07T16:49:36;26.70;;;9.57;;
62256;SDS011;48240;52.962;5.790;2023-05-07T16:52:02;20.88;;;9.52;;
62256;SDS011;48240;52.962;5.790;2023-05-07T16:54:29;21.45;;;8.98;;
62256;SDS011;48240;52.962;5.790;2023-05-07T16:56:55;20.77;;;9.65;;
62256;SDS011;48240;52.962;5.790;2023-05-07T16:59:21;17.05;;;9.25;;
62256;SDS011;48240;52.962;5.790;2023-05-07T17:01:48;18.80;;;8.50;;
62256;SDS011;48240;52.962;5.790;2023-05-07T17:04:16;24.27;;;9.43;;
62256;SDS011;48240;52.962;5.790;2023-05-07T17:06:42;16.58;;;8.93;;
62256;SDS011;48240;52.962;5.790;2023-05-07T17:09:09;19.30;;;8.90;;
62256;SDS011;48240;52.962;5.790;2023-05-07T17:11:35;19.35;;;8.98;;
62256;SDS011;48240;52.962;5.790;2023-05-07T17:14:01;16.02;;;8.55;;
62256;SDS011;48240;52.962;5.790;2023-05-07T17:16:27;19.80;;;8.90;;
62256;SDS011;48240;52.962;5.790;2023-05-07T17:18:53;16.83;;;8.48;;
62256;SDS011;48240;52.962;5.790;2023-05-07T17:21:19;17.85;;;8.40;;
62256;SDS011;48240;52.962;5.790;2023-05-07T17:23:45;17.17;;;8.73;;
62256;SDS011;48240;52.962;5.790;2023-05-07T17:26:12;15.98;;;9.07;;
62256;SDS011;48240;52.962;5.790;2023-05-07T17:28:38;14.68;;;8.65;;
62256;SDS011;48240;52.962;5.790;2023-05-07T17:31:04;15.57;;;8.45;;
62256;SDS011;48240;52.962;5.790;2023-05-07T17:33:31;18.67;;;8.40;;
62256;SDS011;48240;52.962;5.790;2023-05-07T17:35:57;18.58;;;8.25;;
62256;SDS011;48240;52.962;5.790;2023-05-07T17:38:23;17.23;;;8.80;;
62256;SDS011;48240;52.962;5.790;2023-05-07T17:40:49;18.30;;;8.50;;
62256;SDS011;48240;52.962;5.790;2023-05-07T17:43:15;17.23;;;8.45;;
62256;SDS011;48240;52.962;5.790;2023-05-07T17:45:42;14.55;;;8.43;;
62256;SDS011;48240;52.962;5.790;2023-05-07T17:48:08;16.38;;;8.13;;
62256;SDS011;48240;52.962;5.790;2023-05-07T17:50:34;18.63;;;8.50;;
62256;SDS011;48240;52.962;5.790;2023-05-07T17:53:00;14.55;;;8.00;;
62256;SDS011;48240;52.962;5.790;2023-05-07T17:55:26;14.63;;;8.38;;
62256;SDS011;48240;52.962;5.790;2023-05-07T17:57:53;15.32;;;8.25;;
62256;SDS011;48240;52.962;5.790;2023-05-07T18:00:19;15.73;;;7.95;;
62256;SDS011;48240;52.962;5.790;2023-05-07T18:02:45;15.90;;;8.57;;
62256;SDS011;48240;52.962;5.790;2023-05-07T18:05:11;12.48;;;7.70;;
62256;SDS011;48240;52.962;5.790;2023-05-07T18:07:37;11.80;;;7.57;;
62256;SDS011;48240;52.962;5.790;2023-05-07T18:10:04;14.02;;;7.43;;
62256;SDS011;48240;52.962;5.790;2023-05-07T18:12:30;13.98;;;7.90;;
62256;SDS011;48240;52.962;5.790;2023-05-07T18:14:56;14.95;;;7.43;;
62256;SDS011;48240;52.962;5.790;2023-05-07T18:17:22;13.95;;;7.03;;
62256;SDS011;48240;52.962;5.790;2023-05-07T18:19:50;10.02;;;7.05;;
62256;SDS011;48240;52.962;5.790;2023-05-07T18:22:16;13.63;;;8.75;;
62256;SDS011;48240;52.962;5.790;2023-05-07T18:24:42;13.35;;;7.60;;
62256;SDS011;48240;52.962;5.790;2023-05-07T18:27:08;13.57;;;7.38;;
62256;SDS011;48240;52.962;5.790;2023-05-07T18:29:34;10.80;;;6.93;;
62256;SDS011;48240;52.962;5.790;2023-05-07T18:32:01;10.48;;;7.30;;
62256;SDS011;48240;52.962;5.790;2023-05-07T18:34:27;11.65;;;7.22;;
62256;SDS011;48240;52.962;5.790;2023-05-07T18:36:53;9.68;;;7.10;;
62256;SDS011;48240;52.962;5.790;2023-05-07T18:39:20;15.48;;;6.65;;
62256;SDS011;48240;52.962;5.790;2023-05-07T18:41:46;10.25;;;6.30;;
62256;SDS011;48240;52.962;5.790;2023-05-07T18:44:14;12.10;;;6.50;;
62256;SDS011;48240;52.962;5.790;2023-05-07T18:46:41;8.13;;;6.25;;
62256;SDS011;48240;52.962;5.790;2023-05-07T18:49:08;11.25;;;6.50;;
62256;SDS011;48240;52.962;5.790;2023-05-07T18:51:34;12.57;;;6.55;;
62256;SDS011;48240;52.962;5.790;2023-05-07T18:54:00;9.35;;;7.07;;